sensor_id;sensor_type;location;lat;lon;timestamp;pressure;altitude;pressure_sealevel;temperature;humidity
69318;BME280;56457;52.190;4.440;2024-01-30T00:01:00;102713.22;;;8.63;100.00
69318;BME280;56457;52.190;4.440;2024-01-30T00:02:21;102715.81;;;8.63;100.00
69318;BME280;56457;52.190;4.440;2024-01-30T00:03:41;102723.72;;;8.65;100.00
69318;BME280;56457;52.190;4.440;2024-01-30T00:05:02;102725.63;;;8.71;100.00
69318;BME280;56457;52.190;4.440;2024-01-30T00:06:24;102721.25;;;8.70;100.00
69318;BME280;56457;52.190;4.440;2024-01-30T00:07:44;102734.34;;;8.71;100.00
69318;BME280;56457;52.190;4.440;2024-01-30T00:09:05;102733.47;;;8.71;100.00
69318;BME280;56457;52.190;4.440;2024-01-30T00:10:25;102738.72;;;8.71;100.00
69318;BME280;56457;52.190;4.440;2024-01-30T00:11:46;102730.78;;;8.69;100.00
69318;BME280;56457;52.190;4.440;2024-01-30T00:13:07;102726.47;;;8.70;100.00
69318;BME280;56457;52.190;4.440;2024-01-30T00:14:27;102728.09;;;8.66;100.00
69318;BME280;56457;52.190;4.440;2024-01-30T00:15:48;102718.50;;;8.67;100.00
69318;BME280;56457;52.190;4.440;2024-01-30T00:17:09;102722.06;;;8.69;100.00
69318;BME280;56457;52.190;4.440;2024-01-30T00:18:29;102723.03;;;8.72;100.00
69318;BME280;56457;52.190;4.440;2024-01-30T00:19:50;102714.19;;;8.69;100.00
69318;BME280;56457;52.190;4.440;2024-01-30T00:21:11;102707.19;;;8.68;100.00
69318;BME280;56457;52.190;4.440;2024-01-30T00:22:31;102705.56;;;8.71;100.00
69318;BME280;56457;52.190;4.440;2024-01-30T00:23:52;102708.22;;;8.73;100.00
69318;BME280;56457;52.190;4.440;2024-01-30T00:25:13;102709.16;;;8.75;100.00
69318;BME280;56457;52.190;4.440;2024-01-30T00:26:33;102703.13;;;8.77;100.00
69318;BME280;56457;52.190;4.440;2024-01-30T00:27:54;102701.25;;;8.73;100.00
69318;BME280;56457;52.190;4.440;2024-01-30T00:29:14;102705.72;;;8.76;100.00
69318;BME280;56457;52.190;4.440;2024-01-30T00:30:39;102710.13;;;8.78;100.00
69318;BME280;56457;52.190;4.440;2024-01-30T00:32:00;102704.81;;;8.75;100.00
69318;BME280;56457;52.190;4.440;2024-01-30T00:33:20;102715.38;;;8.78;100.00
69318;BME280;56457;52.190;4.440;2024-01-30T00:34:42;102718.00;;;8.78;100.00
69318;BME280;56457;52.190;4.440;2024-01-30T00:36:02;102714.53;;;8.79;100.00
69318;BME280;56457;52.190;4.440;2024-01-30T00:37:23;102716.34;;;8.82;100.00
69318;BME280;56457;52.190;4.440;2024-01-30T00:38:44;102718.06;;;8.81;100.00
69318;BME280;56457;52.190;4.440;2024-01-30T00:40:04;102716.44;;;8.85;100.00
69318;BME280;56457;52.190;4.440;2024-01-30T00:41:26;102717.19;;;8.81;100.00
69318;BME280;56457;52.190;4.440;2024-01-30T00:42:47;102710.22;;;8.81;100.00
69318;BME280;56457;52.190;4.440;2024-01-30T00:44:07;102704.91;;;8.78;100.00
69318;BME280;56457;52.190;4.440;2024-01-30T00:45:28;102704.97;;;8.81;100.00
69318;BME280;56457;52.190;4.440;2024-01-30T00:46:48;102700.63;;;8.82;100.00
69318;BME280;56457;52.190;4.440;2024-01-30T00:48:09;102703.22;;;8.80;100.00
69318;BME280;56457;52.190;4.440;2024-01-30T00:49:30;102716.25;;;8.79;100.00
69318;BME280;56457;52.190;4.440;2024-01-30T00:50:50;102731.06;;;8.78;100.00
69318;BME280;56457;52.190;4.440;2024-01-30T00:52:11;102730.22;;;8.79;100.00
69318;BME280;56457;52.190;4.440;2024-01-30T00:53:32;102720.66;;;8.80;100.00
69318;BME280;56457;52.190;4.440;2024-01-30T00:54:52;102718.03;;;8.80;100.00
69318;BME280;56457;52.190;4.440;2024-01-30T00:56:13;102726.03;;;8.84;100.00
69318;BME280;56457;52.190;4.440;2024-01-30T00:57:34;102719.03;;;8.83;100.00
69318;BME280;56457;52.190;4.440;2024-01-30T00:58:55;102726.75;;;8.80;100.00
69318;BME280;56457;52.190;4.440;2024-01-30T01:00:16;102727.63;;;8.79;100.00
69318;BME280;56457;52.190;4.440;2024-01-30T01:01:37;102723.25;;;8.80;100.00
69318;BME280;56457;52.190;4.440;2024-01-30T01:02:58;102716.41;;;8.83;100.00
69318;BME280;56457;52.190;4.440;2024-01-30T01:04:19;102711.88;;;8.78;100.00
69318;BME280;56457;52.190;4.440;2024-01-30T01:05:41;102711.16;;;8.83;100.00
69318;BME280;56457;52.190;4.440;2024-01-30T01:07:02;102711.22;;;8.85;100.00
69318;BME280;56457;52.190;4.440;2024-01-30T01:08:22;102712.06;;;8.84;100.00
69318;BME280;56457;52.190;4.440;2024-01-30T01:09:43;102705.97;;;8.85;100.00
69318;BME280;56457;52.190;4.440;2024-01-30T01:11:03;102702.50;;;8.86;100.00
69318;BME280;56457;52.190;4.440;2024-01-30T01:12:24;102705.97;;;8.85;100.00
69318;BME280;56457;52.190;4.440;2024-01-30T01:13:45;102702.50;;;8.86;100.00
69318;BME280;56457;52.190;4.440;2024-01-30T01:15:05;102696.50;;;8.88;100.00
69318;BME280;56457;52.190;4.440;2024-01-30T01:16:29;102701.75;;;8.90;100.00
69318;BME280;56457;52.190;4.440;2024-01-30T01:17:50;102694.81;;;8.92;100.00
69318;BME280;56457;52.190;4.440;2024-01-30T01:19:10;102687.13;;;8.97;100.00
69318;BME280;56457;52.190;4.440;2024-01-30T01:20:31;102682.78;;;8.99;100.00
69318;BME280;56457;52.190;4.440;2024-01-30T01:21:51;102677.56;;;8.99;100.00
69318;BME280;56457;52.190;4.440;2024-01-30T01:23:12;102680.22;;;9.00;100.00
69318;BME280;56457;52.190;4.440;2024-01-30T01:24:33;102680.31;;;9.03;100.00
69318;BME280;56457;52.190;4.440;2024-01-30T01:25:54;102678.53;;;9.02;100.00
69318;BME280;56457;52.190;4.440;2024-01-30T01:27:15;102667.22;;;9.03;100.00
69318;BME280;56457;52.190;4.440;2024-01-30T01:28:36;102658.56;;;9.06;100.00
69318;BME280;56457;52.190;4.440;2024-01-30T01:29:57;102671.63;;;9.04;100.00
69318;BME280;56457;52.190;4.440;2024-01-30T01:31:17;102663.00;;;9.08;100.00
69318;BME280;56457;52.190;4.440;2024-01-30T01:32:38;102665.59;;;9.07;100.00
69318;BME280;56457;52.190;4.440;2024-01-30T01:33:59;102665.75;;;9.13;100.00
69318;BME280;56457;52.190;4.440;2024-01-30T01:35:19;102660.41;;;9.10;100.00
69318;BME280;56457;52.190;4.440;2024-01-30T01:36:40;102650.94;;;9.13;100.00
69318;BME280;56457;52.190;4.440;2024-01-30T01:38:00;102648.38;;;9.16;100.00
69318;BME280;56457;52.190;4.440;2024-01-30T01:39:22;102648.41;;;9.18;100.00
69318;BME280;56457;52.190;4.440;2024-01-30T01:40:44;102655.38;;;9.17;100.00
69318;BME280;56457;52.190;4.440;2024-01-30T01:42:04;102652.78;;;9.19;100.00
69318;BME280;56457;52.190;4.440;2024-01-30T01:43:25;102659.69;;;9.15;100.00
69318;BME280;56457;52.190;4.440;2024-01-30T01:44:45;102668.41;;;9.14;100.00
69318;BME280;56457;52.190;4.440;2024-01-30T01:46:06;102670.09;;;9.12;100.00
69318;BME280;56457;52.190;4.440;2024-01-30T01:47:28;102672.75;;;9.14;100.00
69318;BME280;56457;52.190;4.440;2024-01-30T01:48:49;102672.78;;;9.15;100.00
69318;BME280;56457;52.190;4.440;2024-01-30T01:50:10;102671.88;;;9.13;100.00
69318;BME280;56457;52.190;4.440;2024-01-30T01:51:31;102665.75;;;9.13;100.00
69318;BME280;56457;52.190;4.440;2024-01-30T01:52:51;102666.56;;;9.12;100.00
69318;BME280;56457;52.190;4.440;2024-01-30T01:54:12;102653.41;;;9.09;100.00
69318;BME280;56457;52.190;4.440;2024-01-30T01:55:34;102665.53;;;9.05;100.00
69318;BME280;56457;52.190;4.440;2024-01-30T01:56:55;102658.66;;;9.09;100.00
69318;BME280;56457;52.190;4.440;2024-01-30T01:58:16;102656.00;;;9.07;100.00
69318;BME280;56457;52.190;4.440;2024-01-30T01:59:37;102657.78;;;9.08;100.00
69318;BME280;56457;52.190;4.440;2024-01-30T02:00:57;102658.69;;;9.10;100.00
69318;BME280;56457;52.190;4.440;2024-01-30T02:02:19;102669.09;;;9.07;100.00
69318;BME280;56457;52.190;4.440;2024-01-30T02:03:41;102672.50;;;9.05;100.00
69318;BME280;56457;52.190;4.440;2024-01-30T02:05:02;102671.66;;;9.06;100.00
69318;BME280;56457;52.190;4.440;2024-01-30T02:06:22;102676.84;;;9.04;100.00
69318;BME280;56457;52.190;4.440;2024-01-30T02:07:43;102678.69;;;9.07;100.00
69318;BME280;56457;52.190;4.440;2024-01-30T02:09:04;102676.94;;;9.07;100.00
69318;BME280;56457;52.190;4.440;2024-01-30T02:10:25;102667.28;;;9.06;100.00
69318;BME280;56457;52.190;4.440;2024-01-30T02:11:45;102668.25;;;9.08;100.00
69318;BME280;56457;52.190;4.440;2024-01-30T02:13:06;102652.53;;;9.08;100.00
69318;BME280;56457;52.190;4.440;2024-01-30T02:14:26;102656.06;;;9.10;100.00
69318;BME280;56457;52.190;4.440;2024-01-30T02:15:51;102653.56;;;9.13;100.00
69318;BME280;56457;52.190;4.440;2024-01-30T02:17:12;102651.72;;;9.11;100.00
69318;BME280;56457;52.190;4.440;2024-01-30T02:18:32;102661.31;;;9.10;100.00
69318;BME280;56457;52.190;4.440;2024-01-30T02:19:53;102656.06;;;9.10;100.00
69318;BME280;56457;52.190;4.440;2024-01-30T02:21:17;102652.56;;;9.10;100.00
69318;BME280;56457;52.190;4.440;2024-01-30T02:22:38;102656.06;;;9.10;100.00
69318;BME280;56457;52.190;4.440;2024-01-30T02:24:00;102656.91;;;9.09;100.00
69318;BME280;56457;52.190;4.440;2024-01-30T02:25:30;102656.94;;;9.11;100.00
69318;BME280;56457;52.190;4.440;2024-01-30T02:26:50;102654.34;;;9.11;100.00
69318;BME280;56457;52.190;4.440;2024-01-30T02:28:11;102656.06;;;9.10;100.00
69318;BME280;56457;52.190;4.440;2024-01-30T02:29:32;102657.81;;;9.10;100.00
69318;BME280;56457;52.190;4.440;2024-01-30T02:30:53;102655.28;;;9.13;100.00
69318;BME280;56457;52.190;4.440;2024-01-30T02:32:13;102660.41;;;9.10;100.00
69318;BME280;56457;52.190;4.440;2024-01-30T02:33:34;102656.16;;;9.13;100.00
69318;BME280;56457;52.190;4.440;2024-01-30T02:34:54;102653.59;;;9.15;100.00
69318;BME280;56457;52.190;4.440;2024-01-30T02:36:15;102651.00;;;9.16;100.00
69318;BME280;56457;52.190;4.440;2024-01-30T02:37:36;102648.38;;;9.16;100.00
69318;BME280;56457;52.190;4.440;2024-01-30T02:38:56;102641.41;;;9.17;100.00
69318;BME280;56457;52.190;4.440;2024-01-30T02:40:17;102638.72;;;9.14;100.00
69318;BME280;56457;52.190;4.440;2024-01-30T02:41:37;102635.22;;;9.13;100.00
69318;BME280;56457;52.190;4.440;2024-01-30T02:42:58;102643.06;;;9.13;100.00
69318;BME280;56457;52.190;4.440;2024-01-30T02:44:19;102627.38;;;9.13;100.00
69318;BME280;56457;52.190;4.440;2024-01-30T02:45:40;102628.19;;;9.12;100.00
69318;BME280;56457;52.190;4.440;2024-01-30T02:47:00;102616.91;;;9.13;100.00
69318;BME280;56457;52.190;4.440;2024-01-30T02:48:21;102618.53;;;9.10;100.00
69318;BME280;56457;52.190;4.440;2024-01-30T02:49:42;102619.41;;;9.10;100.00
69318;BME280;56457;52.190;4.440;2024-01-30T02:51:02;102628.19;;;9.12;100.00
69318;BME280;56457;52.190;4.440;2024-01-30T02:52:23;102623.72;;;9.08;100.00
69318;BME280;56457;52.190;4.440;2024-01-30T02:53:43;102627.25;;;9.10;100.00
69318;BME280;56457;52.190;4.440;2024-01-30T02:55:04;102617.53;;;9.06;100.00
69318;BME280;56457;52.190;4.440;2024-01-30T02:56:25;102613.31;;;9.11;100.00
69318;BME280;56457;52.190;4.440;2024-01-30T02:57:45;102618.66;;;9.14;100.00
69318;BME280;56457;52.190;4.440;2024-01-30T02:59:06;102616.94;;;9.16;100.00
69318;BME280;56457;52.190;4.440;2024-01-30T03:00:26;102615.22;;;9.17;100.00
69318;BME280;56457;52.190;4.440;2024-01-30T03:01:47;102610.88;;;9.17;100.00
69318;BME280;56457;52.190;4.440;2024-01-30T03:03:08;102615.31;;;9.20;100.00
69318;BME280;56457;52.190;4.440;2024-01-30T03:04:28;102613.59;;;9.21;100.00
69318;BME280;56457;52.190;4.440;2024-01-30T03:05:50;102609.97;;;9.17;100.00
69318;BME280;56457;52.190;4.440;2024-01-30T03:07:11;102613.50;;;9.19;100.00
69318;BME280;56457;52.190;4.440;2024-01-30T03:08:31;102610.88;;;9.17;100.00
69318;BME280;56457;52.190;4.440;2024-01-30T03:09:52;102610.09;;;9.20;100.00
69318;BME280;56457;52.190;4.440;2024-01-30T03:11:13;102610.09;;;9.20;100.00
69318;BME280;56457;52.190;4.440;2024-01-30T03:12:33;102615.22;;;9.17;100.00
69318;BME280;56457;52.190;4.440;2024-01-30T03:13:54;102615.31;;;9.20;100.00
69318;BME280;56457;52.190;4.440;2024-01-30T03:15:14;102619.59;;;9.18;100.00
69318;BME280;56457;52.190;4.440;2024-01-30T03:16:35;102614.34;;;9.16;100.00
69318;BME280;56457;52.190;4.440;2024-01-30T03:17:55;102623.97;;;9.17;100.00
69318;BME280;56457;52.190;4.440;2024-01-30T03:19:16;102623.94;;;9.16;100.00
69318;BME280;56457;52.190;4.440;2024-01-30T03:20:37;102627.44;;;9.16;100.00
69318;BME280;56457;52.190;4.440;2024-01-30T03:21:58;102621.31;;;9.16;100.00
69318;BME280;56457;52.190;4.440;2024-01-30T03:23:18;102623.06;;;9.17;100.00
69318;BME280;56457;52.190;4.440;2024-01-30T03:24:39;102630.88;;;9.14;100.00
69318;BME280;56457;52.190;4.440;2024-01-30T03:25:59;102630.81;;;9.12;100.00
69318;BME280;56457;52.190;4.440;2024-01-30T03:27:20;102621.28;;;9.14;100.00
69318;BME280;56457;52.190;4.440;2024-01-30T03:28:41;102631.78;;;9.16;100.00
69318;BME280;56457;52.190;4.440;2024-01-30T03:30:01;102620.44;;;9.15;100.00
69318;BME280;56457;52.190;4.440;2024-01-30T03:31:22;102616.94;;;9.16;100.00
69318;BME280;56457;52.190;4.440;2024-01-30T03:32:43;102615.22;;;9.17;100.00
69318;BME280;56457;52.190;4.440;2024-01-30T03:34:04;102614.19;;;9.10;100.00
69318;BME280;56457;52.190;4.440;2024-01-30T03:35:24;102614.28;;;9.13;100.00
69318;BME280;56457;52.190;4.440;2024-01-30T03:36:45;102618.56;;;9.11;100.00
69318;BME280;56457;52.190;4.440;2024-01-30T03:38:05;102612.31;;;9.06;100.00
69318;BME280;56457;52.190;4.440;2024-01-30T03:39:27;102619.25;;;9.04;100.00
69318;BME280;56457;52.190;4.440;2024-01-30T03:40:47;102618.50;;;9.08;100.00
69318;BME280;56457;52.190;4.440;2024-01-30T03:42:08;102612.38;;;9.08;100.00
69318;BME280;56457;52.190;4.440;2024-01-30T03:43:28;102609.81;;;9.11;100.00
69318;BME280;56457;52.190;4.440;2024-01-30T03:44:49;102610.66;;;9.10;100.00
69318;BME280;56457;52.190;4.440;2024-01-30T03:46:12;102603.69;;;9.10;100.00
69318;BME280;56457;52.190;4.440;2024-01-30T03:47:33;102601.13;;;9.12;100.00
69318;BME280;56457;52.190;4.440;2024-01-30T03:48:53;102593.16;;;9.07;100.00
69318;BME280;56457;52.190;4.440;2024-01-30T03:50:14;102595.88;;;9.12;100.00
69318;BME280;56457;52.190;4.440;2024-01-30T03:51:35;102595.88;;;9.12;100.00
69318;BME280;56457;52.190;4.440;2024-01-30T03:52:55;102599.38;;;9.12;100.00
69318;BME280;56457;52.190;4.440;2024-01-30T03:54:16;102598.47;;;9.10;100.00
69318;BME280;56457;52.190;4.440;2024-01-30T03:55:36;102601.13;;;9.12;100.00
69318;BME280;56457;52.190;4.440;2024-01-30T03:56:57;102600.16;;;9.08;100.00
69318;BME280;56457;52.190;4.440;2024-01-30T03:58:18;102601.09;;;9.10;100.00
69318;BME280;56457;52.190;4.440;2024-01-30T03:59:41;102603.69;;;9.10;100.00
69318;BME280;56457;52.190;4.440;2024-01-30T04:01:01;102603.69;;;9.10;100.00
69318;BME280;56457;52.190;4.440;2024-01-30T04:02:22;102608.06;;;9.10;100.00
69318;BME280;56457;52.190;4.440;2024-01-30T04:03:42;102603.69;;;9.10;100.00
69318;BME280;56457;52.190;4.440;2024-01-30T04:05:04;102606.41;;;9.13;100.00
69318;BME280;56457;52.190;4.440;2024-01-30T04:06:25;102606.47;;;9.16;100.00
69318;BME280;56457;52.190;4.440;2024-01-30T04:07:46;102603.91;;;9.18;100.00
69318;BME280;56457;52.190;4.440;2024-01-30T04:09:07;102612.63;;;9.18;100.00
69318;BME280;56457;52.190;4.440;2024-01-30T04:10:27;102608.28;;;9.19;100.00
69318;BME280;56457;52.190;4.440;2024-01-30T04:11:48;102609.19;;;9.20;100.00
69318;BME280;56457;52.190;4.440;2024-01-30T04:13:09;102610.88;;;9.17;100.00
69318;BME280;56457;52.190;4.440;2024-01-30T04:14:29;102610.13;;;9.22;100.00
69318;BME280;56457;52.190;4.440;2024-01-30T04:15:50;102610.28;;;9.28;100.00
69318;BME280;56457;52.190;4.440;2024-01-30T04:17:11;102605.91;;;9.28;100.00
69318;BME280;56457;52.190;4.440;2024-01-30T04:18:31;102599.75;;;9.26;100.00
69318;BME280;56457;52.190;4.440;2024-01-30T04:19:52;102595.47;;;9.30;100.00
69318;BME280;56457;52.190;4.440;2024-01-30T04:21:13;102595.59;;;9.34;100.00
69318;BME280;56457;52.190;4.440;2024-01-30T04:22:33;102592.09;;;9.34;100.00
69318;BME280;56457;52.190;4.440;2024-01-30T04:23:54;102591.34;;;9.38;100.00
69318;BME280;56457;52.190;4.440;2024-01-30T04:25:14;102593.13;;;9.40;100.00
69318;BME280;56457;52.190;4.440;2024-01-30T04:26:35;102592.31;;;9.43;100.00
69318;BME280;56457;52.190;4.440;2024-01-30T04:27:57;102589.75;;;9.44;100.00
69318;BME280;56457;52.190;4.440;2024-01-30T04:29:17;102589.75;;;9.44;100.00
69318;BME280;56457;52.190;4.440;2024-01-30T04:30:38;102595.00;;;9.44;100.00
69318;BME280;56457;52.190;4.440;2024-01-30T04:31:59;102579.28;;;9.46;100.00
69318;BME280;56457;52.190;4.440;2024-01-30T04:33:19;102591.66;;;9.52;100.00
69318;BME280;56457;52.190;4.440;2024-01-30T04:34:40;102588.09;;;9.50;100.00
69318;BME280;56457;52.190;4.440;2024-01-30T04:36:00;102582.06;;;9.52;100.00
69318;BME280;56457;52.190;4.440;2024-01-30T04:37:21;102585.53;;;9.51;100.00
69318;BME280;56457;52.190;4.440;2024-01-30T04:38:42;102588.25;;;9.56;100.00
69318;BME280;56457;52.190;4.440;2024-01-30T04:40:02;102580.38;;;9.56;100.00
69318;BME280;56457;52.190;4.440;2024-01-30T04:41:23;102581.41;;;9.62;100.00
69318;BME280;56457;52.190;4.440;2024-01-30T04:42:44;102584.75;;;9.55;100.00
69318;BME280;56457;52.190;4.440;2024-01-30T04:44:04;102583.97;;;9.59;100.00
69318;BME280;56457;52.190;4.440;2024-01-30T04:45:25;102577.97;;;9.63;100.00
69318;BME280;56457;52.190;4.440;2024-01-30T04:46:45;102580.53;;;9.62;100.00
69318;BME280;56457;52.190;4.440;2024-01-30T04:48:06;102578.75;;;9.59;100.00
69318;BME280;56457;52.190;4.440;2024-01-30T04:49:27;102578.91;;;9.67;100.00
69318;BME280;56457;52.190;4.440;2024-01-30T04:50:47;102577.16;;;9.66;100.00
69318;BME280;56457;52.190;4.440;2024-01-30T04:52:08;102566.75;;;9.69;100.00
69318;BME280;56457;52.190;4.440;2024-01-30T04:53:29;102575.50;;;9.69;100.00
69318;BME280;56457;52.190;4.440;2024-01-30T04:54:50;102569.41;;;9.70;100.00
69318;BME280;56457;52.190;4.440;2024-01-30T04:56:11;102570.28;;;9.71;100.00
69318;BME280;56457;52.190;4.440;2024-01-30T04:57:31;102572.06;;;9.74;100.00
69318;BME280;56457;52.190;4.440;2024-01-30T04:58:53;102573.84;;;9.75;100.00
69318;BME280;56457;52.190;4.440;2024-01-30T05:00:14;102580.91;;;9.77;100.00
69318;BME280;56457;52.190;4.440;2024-01-30T05:01:35;102572.06;;;9.74;100.00
69318;BME280;56457;52.190;4.440;2024-01-30T05:02:56;102579.22;;;9.81;100.00
69318;BME280;56457;52.190;4.440;2024-01-30T05:04:16;102573.22;;;9.85;100.00
69318;BME280;56457;52.190;4.440;2024-01-30T05:05:37;102571.44;;;9.84;100.00
69318;BME280;56457;52.190;4.440;2024-01-30T05:06:57;102581.06;;;9.83;100.00
69318;BME280;56457;52.190;4.440;2024-01-30T05:08:18;102578.47;;;9.86;100.00
69318;BME280;56457;52.190;4.440;2024-01-30T05:09:38;102575.00;;;9.87;100.00
69318;BME280;56457;52.190;4.440;2024-01-30T05:11:02;102579.38;;;9.87;100.00
69318;BME280;56457;52.190;4.440;2024-01-30T05:12:24;102588.09;;;9.86;100.00
69318;BME280;56457;52.190;4.440;2024-01-30T05:13:44;102578.53;;;9.88;100.00
69318;BME280;56457;52.190;4.440;2024-01-30T05:15:05;102582.94;;;9.89;100.00
69318;BME280;56457;52.190;4.440;2024-01-30T05:16:25;102578.47;;;9.85;100.00
69318;BME280;56457;52.190;4.440;2024-01-30T05:17:46;102579.38;;;9.87;100.00
69318;BME280;56457;52.190;4.440;2024-01-30T05:19:07;102575.97;;;9.91;100.00
69318;BME280;56457;52.190;4.440;2024-01-30T05:20:27;102571.63;;;9.91;100.00
69318;BME280;56457;52.190;4.440;2024-01-30T05:21:49;102571.72;;;9.96;100.00
69318;BME280;56457;52.190;4.440;2024-01-30T05:23:09;102586.56;;;9.95;100.00
69318;BME280;56457;52.190;4.440;2024-01-30T05:24:30;102579.59;;;9.96;100.00
69318;BME280;56457;52.190;4.440;2024-01-30T05:25:51;102578.72;;;9.97;100.00
69318;BME280;56457;52.190;4.440;2024-01-30T05:27:11;102576.13;;;9.98;100.00
69318;BME280;56457;52.190;4.440;2024-01-30T05:28:33;102571.78;;;9.99;100.00
69318;BME280;56457;52.190;4.440;2024-01-30T05:29:54;102578.81;;;10.00;100.00
69318;BME280;56457;52.190;4.440;2024-01-30T05:31:15;102581.34;;;9.97;100.00
69318;BME280;56457;52.190;4.440;2024-01-30T05:32:35;102578.81;;;10.00;100.00
69318;BME280;56457;52.190;4.440;2024-01-30T05:33:56;102574.41;;;9.99;100.00
69318;BME280;56457;52.190;4.440;2024-01-30T05:35:16;102577.09;;;10.01;100.00
69318;BME280;56457;52.190;4.440;2024-01-30T05:36:37;102569.25;;;10.02;100.00
69318;BME280;56457;52.190;4.440;2024-01-30T05:37:57;102573.72;;;10.06;100.00
69318;BME280;56457;52.190;4.440;2024-01-30T05:39:18;102568.41;;;10.05;100.00
69318;BME280;56457;52.190;4.440;2024-01-30T05:40:39;102564.03;;;10.04;100.00
69318;BME280;56457;52.190;4.440;2024-01-30T05:41:59;102554.44;;;10.06;100.00
69318;BME280;56457;52.190;4.440;2024-01-30T05:43:20;102548.28;;;10.04;100.00
69318;BME280;56457;52.190;4.440;2024-01-30T05:44:40;102559.78;;;10.09;100.00
69318;BME280;56457;52.190;4.440;2024-01-30T05:46:01;102565.00;;;10.09;100.00
69318;BME280;56457;52.190;4.440;2024-01-30T05:47:22;102558.00;;;10.08;100.00
69318;BME280;56457;52.190;4.440;2024-01-30T05:48:42;102557.13;;;10.07;100.00
69318;BME280;56457;52.190;4.440;2024-01-30T05:50:03;102564.94;;;10.06;100.00
69318;BME280;56457;52.190;4.440;2024-01-30T05:51:24;102565.00;;;10.09;100.00
69318;BME280;56457;52.190;4.440;2024-01-30T05:52:45;102555.34;;;10.06;100.00
69318;BME280;56457;52.190;4.440;2024-01-30T05:54:05;102569.38;;;10.08;100.00
69318;BME280;56457;52.190;4.440;2024-01-30T05:55:26;102567.47;;;10.01;100.00
69318;BME280;56457;52.190;4.440;2024-01-30T05:56:47;102563.16;;;10.05;100.00
69318;BME280;56457;52.190;4.440;2024-01-30T05:58:07;102571.00;;;10.03;100.00
69318;BME280;56457;52.190;4.440;2024-01-30T05:59:28;102578.88;;;10.03;100.00
69318;BME280;56457;52.190;4.440;2024-01-30T06:00:49;102576.28;;;10.05;100.00
69318;BME280;56457;52.190;4.440;2024-01-30T06:02:12;102575.41;;;10.04;100.00
69318;BME280;56457;52.190;4.440;2024-01-30T06:03:32;102571.00;;;10.03;100.00
69318;BME280;56457;52.190;4.440;2024-01-30T06:04:53;102573.66;;;10.05;100.00
69318;BME280;56457;52.190;4.440;2024-01-30T06:06:13;102581.50;;;10.03;100.00
69318;BME280;56457;52.190;4.440;2024-01-30T06:07:34;102574.53;;;10.05;100.00
69318;BME280;56457;52.190;4.440;2024-01-30T06:08:55;102582.38;;;10.04;100.00
69318;BME280;56457;52.190;4.440;2024-01-30T06:10:16;102578.88;;;10.03;100.00
69318;BME280;56457;52.190;4.440;2024-01-30T06:11:37;102579.69;;;10.01;100.00
69318;BME280;56457;52.190;4.440;2024-01-30T06:12:57;102582.25;;;9.97;100.00
69318;BME280;56457;52.190;4.440;2024-01-30T06:14:18;102585.78;;;9.99;100.00
69318;BME280;56457;52.190;4.440;2024-01-30T06:15:38;102587.47;;;9.96;100.00
69318;BME280;56457;52.190;4.440;2024-01-30T06:16:59;102591.84;;;9.97;100.00
69318;BME280;56457;52.190;4.440;2024-01-30T06:18:20;102587.44;;;9.94;100.00
69318;BME280;56457;52.190;4.440;2024-01-30T06:19:41;102583.97;;;9.97;100.00
69318;BME280;56457;52.190;4.440;2024-01-30T06:21:02;102593.56;;;9.95;100.00
69318;BME280;56457;52.190;4.440;2024-01-30T06:22:22;102590.22;;;10.02;100.00
69318;BME280;56457;52.190;4.440;2024-01-30T06:23:43;102582.41;;;10.05;100.00
69318;BME280;56457;52.190;4.440;2024-01-30T06:25:03;102585.88;;;10.04;100.00
69318;BME280;56457;52.190;4.440;2024-01-30T06:26:24;102588.63;;;10.09;100.00
69318;BME280;56457;52.190;4.440;2024-01-30T06:27:45;102586.84;;;10.08;100.00
69318;BME280;56457;52.190;4.440;2024-01-30T06:29:05;102584.13;;;10.05;100.00
69318;BME280;56457;52.190;4.440;2024-01-30T06:30:26;102590.34;;;10.07;100.00
69318;BME280;56457;52.190;4.440;2024-01-30T06:31:46;102589.44;;;10.06;100.00
69318;BME280;56457;52.190;4.440;2024-01-30T06:33:07;102579.78;;;10.05;100.00
69318;BME280;56457;52.190;4.440;2024-01-30T06:34:28;102573.63;;;10.03;100.00
69318;BME280;56457;52.190;4.440;2024-01-30T06:35:48;102581.50;;;10.03;100.00
69318;BME280;56457;52.190;4.440;2024-01-30T06:37:09;102580.63;;;10.03;100.00
69318;BME280;56457;52.190;4.440;2024-01-30T06:38:29;102584.09;;;10.02;100.00
69318;BME280;56457;52.190;4.440;2024-01-30T06:39:50;102592.72;;;9.97;100.00
69318;BME280;56457;52.190;4.440;2024-01-30T06:41:10;102584.94;;;10.01;100.00
69318;BME280;56457;52.190;4.440;2024-01-30T06:42:31;102586.59;;;9.97;100.00
69318;BME280;56457;52.190;4.440;2024-01-30T06:43:51;102584.88;;;9.99;100.00
69318;BME280;56457;52.190;4.440;2024-01-30T06:45:12;102584.88;;;9.97;100.00
69318;BME280;56457;52.190;4.440;2024-01-30T06:46:33;102591.00;;;9.99;100.00
69318;BME280;56457;52.190;4.440;2024-01-30T06:47:53;102586.72;;;10.02;100.00
69318;BME280;56457;52.190;4.440;2024-01-30T06:49:14;102595.50;;;10.05;100.00
69318;BME280;56457;52.190;4.440;2024-01-30T06:50:34;102580.66;;;10.06;100.00
69318;BME280;56457;52.190;4.440;2024-01-30T06:51:55;102591.16;;;10.06;100.00
69318;BME280;56457;52.190;4.440;2024-01-30T06:53:16;102597.41;;;10.12;100.00
69318;BME280;56457;52.190;4.440;2024-01-30T06:54:36;102599.22;;;10.13;100.00
69318;BME280;56457;52.190;4.440;2024-01-30T06:55:57;102589.63;;;10.15;100.00
69318;BME280;56457;52.190;4.440;2024-01-30T06:57:17;102595.78;;;10.17;100.00
69318;BME280;56457;52.190;4.440;2024-01-30T06:58:38;102597.53;;;10.17;100.00
69318;BME280;56457;52.190;4.440;2024-01-30T06:59:59;102599.25;;;10.16;100.00
69318;BME280;56457;52.190;4.440;2024-01-30T07:01:20;102594.09;;;10.19;100.00